Time;durP1;ratioP1;P1;durP2;ratioP2;P2;SDS_P1;SDS_P2;PMS_P1;PMS_P2;Temp;Humidity;BMP_temperature;BMP_pressure;BME280_temperature;BME280_humidity;BME280_pressure;Samples;Min_cycle;Max_cycle;Signal;HPM_P1;HPM_P2
2022/09/01 00:01:36;;;;;;;3.78;1.73;;;;;;;;;;5011144;28;20116;-63
2022/09/01 00:04:03;;;;;;;3.55;1.70;;;;;;;;;;5018939;28;20084;-64
2022/09/01 00:06:30;;;;;;;3.25;1.60;;;;;;;;;;5032156;28;20037;-64
2022/09/01 00:08:57;;;;;;;3.70;1.58;;;;;;;;;;5020710;28;20547;-64
2022/09/01 00:11:25;;;;;;;2.30;1.50;;;;;;;;;;5047381;28;20041;-64
2022/09/01 00:13:52;;;;;;;6.75;1.65;;;;;;;;;;5025774;28;20041;-63
2022/09/01 00:16:19;;;;;;;5.72;1.83;;;;;;;;;;5034178;28;20047;-64
2022/09/01 00:18:51;;;;;;;4.40;1.67;;;;;;;;;;5045791;28;20055;-64
2022/09/01 00:21:18;;;;;;;5.03;1.92;;;;;;;;;;5036482;28;20041;-64
2022/09/01 00:23:44;;;;;;;2.90;1.80;;;;;;;;;;5028182;28;20043;-63
2022/09/01 00:26:10;;;;;;;4.93;1.63;;;;;;;;;;5021081;28;20124;-64
2022/09/01 00:28:37;;;;;;;3.03;1.70;;;;;;;;;;5027998;28;20045;-64
2022/09/01 00:31:03;;;;;;;3.80;1.70;;;;;;;;;;5028912;28;20466;-64
2022/09/01 00:33:30;;;;;;;5.15;1.70;;;;;;;;;;5024621;28;20056;-63
2022/09/01 00:35:56;;;;;;;4.45;1.70;;;;;;;;;;5026577;28;20133;-63
2022/09/01 00:38:22;;;;;;;5.15;1.60;;;;;;;;;;5029563;28;20124;-63
2022/09/01 00:40:48;;;;;;;8.32;1.90;;;;;;;;;;5036041;28;20044;-63
2022/09/01 00:43:16;;;;;;;5.10;1.80;;;;;;;;;;5032885;28;20565;-63
2022/09/01 00:45:42;;;;;;;3.35;1.95;;;;;;;;;;5026752;28;20068;-63
2022/09/01 00:48:08;;;;;;;2.92;1.70;;;;;;;;;;5030395;28;20045;-63
2022/09/01 00:50:36;;;;;;;2.75;1.60;;;;;;;;;;5018678;28;20490;-63
2022/09/01 00:53:02;;;;;;;3.88;1.83;;;;;;;;;;5045778;28;20502;-63
2022/09/01 00:55:29;;;;;;;2.55;1.80;;;;;;;;;;5039706;28;20444;-63
2022/09/01 00:57:56;;;;;;;2.55;1.70;;;;;;;;;;5046578;28;20039;-63
2022/09/01 01:00:24;;;;;;;4.57;1.90;;;;;;;;;;5034465;28;20560;-63
2022/09/01 01:02:55;;;;;;;3.42;1.85;;;;;;;;;;5027872;28;20078;-63
2022/09/01 01:05:31;;;;;;;2.53;1.67;;;;;;;;;;5029048;28;20037;-63
2022/09/01 01:07:59;;;;;;;3.35;1.80;;;;;;;;;;5022235;28;20124;-63
2022/09/01 01:10:25;;;;;;;4.20;1.60;;;;;;;;;;5031845;28;20045;-63
2022/09/01 01:12:52;;;;;;;2.50;1.70;;;;;;;;;;5036332;28;20044;-63
2022/09/01 01:15:19;;;;;;;5.70;2.17;;;;;;;;;;5033769;28;20062;-63
2022/09/01 01:17:45;;;;;;;2.00;1.58;;;;;;;;;;5019184;28;20044;-63
2022/09/01 01:23:07;;;;;;;3.70;1.90;;;;;;;;;;5043145;28;20044;-63
2022/09/01 01:25:48;;;;;;;2.05;1.67;;;;;;;;;;5038085;28;20518;-63
2022/09/01 01:28:17;;;;;;;2.93;1.73;;;;;;;;;;5045106;28;20040;-63
2022/09/01 01:30:51;;;;;;;2.30;1.83;;;;;;;;;;5042033;28;20041;-63
2022/09/01 01:33:19;;;;;;;3.38;2.08;;;;;;;;;;5023419;28;20060;-63
2022/09/01 01:35:45;;;;;;;2.85;2.00;;;;;;;;;;5032214;28;20120;-63
2022/09/01 01:38:13;;;;;;;3.72;1.85;;;;;;;;;;5025670;28;20052;-63
2022/09/01 01:40:40;;;;;;;2.45;1.80;;;;;;;;;;5030018;28;20155;-63
2022/09/01 01:43:06;;;;;;;2.13;1.60;;;;;;;;;;5038765;28;20037;-63
2022/09/01 01:45:33;;;;;;;2.95;1.90;;;;;;;;;;5039472;28;20045;-63
2022/09/01 01:48:07;;;;;;;2.42;1.60;;;;;;;;;;5037755;28;20060;-63
2022/09/01 01:50:34;;;;;;;2.92;1.92;;;;;;;;;;5030895;28;20116;-63
2022/09/01 01:53:02;;;;;;;3.78;1.70;;;;;;;;;;5035093;28;20088;-63
2022/09/01 01:55:29;;;;;;;3.42;1.85;;;;;;;;;;5036112;28;20052;-64
2022/09/01 01:57:56;;;;;;;5.68;2.10;;;;;;;;;;5038975;28;20044;-63
2022/09/01 02:00:25;;;;;;;3.53;1.95;;;;;;;;;;5035885;28;20049;-63
2022/09/01 02:02:52;;;;;;;3.22;1.90;;;;;;;;;;5025117;28;20052;-63
2022/09/01 02:05:24;;;;;;;2.95;1.88;;;;;;;;;;5029071;28;20045;-63
2022/09/01 02:07:58;;;;;;;2.60;1.90;;;;;;;;;;5016358;28;20495;-63
2022/09/01 02:10:29;;;;;;;2.85;1.60;;;;;;;;;;5012537;28;21047;-63
2022/09/01 02:13:03;;;;;;;;;;;;;;;;;;5011520;28;20073;-63
2022/09/01 02:15:33;;;;;;;3.08;2.00;;;;;;;;;;5019149;28;20031;-63
2022/09/01 02:17:59;;;;;;;2.90;2.05;;;;;;;;;;5032617;28;20037;-63
2022/09/01 02:20:31;;;;;;;3.38;1.73;;;;;;;;;;5043164;28;20725;-63
2022/09/01 02:23:01;;;;;;;2.17;1.88;;;;;;;;;;5038747;28;20041;-63
2022/09/01 02:25:28;;;;;;;3.28;1.88;;;;;;;;;;5037038;28;20052;-63
2022/09/01 02:27:54;;;;;;;2.20;2.00;;;;;;;;;;5042075;28;20049;-63
2022/09/01 02:30:21;;;;;;;3.72;2.35;;;;;;;;;;5031856;28;20068;-63
2022/09/01 02:32:47;;;;;;;3.78;2.10;;;;;;;;;;5038420;28;20048;-63
2022/09/01 02:35:13;;;;;;;2.78;1.90;;;;;;;;;;5031859;28;20045;-63
2022/09/01 02:37:42;;;;;;;5.95;2.00;;;;;;;;;;5034231;28;20037;-63
2022/09/01 02:40:09;;;;;;;2.33;2.00;;;;;;;;;;5037282;28;20106;-63
2022/09/01 02:42:39;;;;;;;3.28;2.08;;;;;;;;;;5036963;28;20491;-63
2022/09/01 02:45:15;;;;;;;2.97;2.50;;;;;;;;;;5028438;28;20175;-63
2022/09/01 02:47:47;;;;;;;2.92;2.00;;;;;;;;;;5028511;28;20037;-64
2022/09/01 02:50:15;;;;;;;2.15;1.77;;;;;;;;;;5046393;28;20139;-63
2022/09/01 02:52:42;;;;;;;2.63;2.20;;;;;;;;;;5036954;28;20060;-63
2022/09/01 02:55:09;;;;;;;4.03;2.20;;;;;;;;;;5026409;28;20050;-63
2022/09/01 02:57:35;;;;;;;3.55;2.08;;;;;;;;;;5027303;28;20183;-63
2022/09/01 03:00:01;;;;;;;2.67;1.95;;;;;;;;;;5032016;28;20037;-63
2022/09/01 03:02:27;;;;;;;3.13;1.92;;;;;;;;;;5026826;28;20127;-63
2022/09/01 03:04:54;;;;;;;2.08;1.67;;;;;;;;;;5034283;28;20135;-63
2022/09/01 03:07:22;;;;;;;3.85;1.80;;;;;;;;;;5030073;28;20038;-63
2022/09/01 03:09:49;;;;;;;4.95;2.17;;;;;;;;;;5042979;28;20103;-63
2022/09/01 03:12:15;;;;;;;3.78;2.05;;;;;;;;;;5033466;28;20050;-63
2022/09/01 03:14:41;;;;;;;2.95;1.83;;;;;;;;;;5030259;28;20038;-63
2022/09/01 03:17:07;;;;;;;2.70;2.22;;;;;;;;;;5039900;28;20087;-63
2022/09/01 03:19:39;;;;;;;3.08;2.00;;;;;;;;;;5046472;28;20037;-63
2022/09/01 03:22:05;;;;;;;4.25;1.65;;;;;;;;;;5033229;28;20400;-63
2022/09/01 03:24:31;;;;;;;3.95;1.90;;;;;;;;;;5036666;28;20181;-63
2022/09/01 03:26:57;;;;;;;2.28;1.77;;;;;;;;;;5026517;28;20049;-63
2022/09/01 03:29:23;;;;;;;3.08;2.00;;;;;;;;;;5033315;28;20041;-63
2022/09/01 03:31:49;;;;;;;2.83;2.10;;;;;;;;;;5027133;28;20049;-63
2022/09/01 03:34:18;;;;;;;3.50;2.00;;;;;;;;;;5030254;28;20037;-63
2022/09/01 03:36:48;;;;;;;5.00;2.45;;;;;;;;;;5038432;28;20035;-63
2022/09/01 03:39:16;;;;;;;2.20;1.98;;;;;;;;;;5035437;28;20047;-63
2022/09/01 03:41:42;;;;;;;2.38;2.03;;;;;;;;;;5031359;28;20037;-63
2022/09/01 03:44:10;;;;;;;2.70;2.30;;;;;;;;;;5027917;28;20124;-63
2022/09/01 03:46:39;;;;;;;3.50;1.90;;;;;;;;;;5032394;28;20056;-63
2022/09/01 03:49:06;;;;;;;3.00;1.95;;;;;;;;;;5042309;28;20106;-63
2022/09/01 03:51:33;;;;;;;4.68;1.92;;;;;;;;;;5033268;28;20036;-63
2022/09/01 03:53:59;;;;;;;3.58;1.85;;;;;;;;;;5027128;28;20531;-63
2022/09/01 03:56:26;;;;;;;3.13;2.20;;;;;;;;;;5032914;28;20125;-63
2022/09/01 03:58:55;;;;;;;2.65;2.00;;;;;;;;;;5044266;28;20079;-63
2022/09/01 04:01:21;;;;;;;5.07;2.35;;;;;;;;;;5021643;28;20042;-63
2022/09/01 04:03:47;;;;;;;3.97;2.22;;;;;;;;;;5024989;28;20492;-63
2022/09/01 04:06:14;;;;;;;5.32;2.20;;;;;;;;;;5035347;28;20395;-63
2022/09/01 04:08:41;;;;;;;4.35;2.28;;;;;;;;;;5027628;28;20036;-63
2022/09/01 04:11:12;;;;;;;5.97;2.55;;;;;;;;;;5043677;28;20052;-62
2022/09/01 04:13:41;;;;;;;3.72;2.22;;;;;;;;;;5023661;28;20127;-63
2022/09/01 04:16:09;;;;;;;5.20;2.10;;;;;;;;;;5026755;28;20252;-63
2022/09/01 04:18:35;;;;;;;3.65;2.67;;;;;;;;;;5040144;28;20041;-63
2022/09/01 04:21:01;;;;;;;4.22;2.47;;;;;;;;;;5033447;28;20041;-63
2022/09/01 04:23:32;;;;;;;5.25;2.70;;;;;;;;;;5033577;28;20041;-63
2022/09/01 04:25:58;;;;;;;;;;;;;;;;;;5055608;22;20042;-62
2022/09/01 04:28:32;;;;;;;3.70;2.38;;;;;;;;;;5045138;28;19927;-62
2022/09/01 04:30:58;;;;;;;4.90;2.30;;;;;;;;;;5042894;28;20409;-62
2022/09/01 04:33:35;;;;;;;4.65;2.28;;;;;;;;;;5046169;28;20033;-62
2022/09/01 04:36:02;;;;;;;3.33;2.33;;;;;;;;;;5032289;28;20049;-62
2022/09/01 04:38:29;;;;;;;4.65;2.60;;;;;;;;;;5028824;28;20045;-62
2022/09/01 04:40:58;;;;;;;4.15;2.47;;;;;;;;;;5035983;28;20134;-62
2022/09/01 04:43:24;;;;;;;4.32;2.60;;;;;;;;;;5029581;28;20093;-62
2022/09/01 04:45:50;;;;;;;4.38;2.53;;;;;;;;;;5033142;28;20053;-62
2022/09/01 04:48:18;;;;;;;4.03;2.67;;;;;;;;;;5029252;28;20041;-63
2022/09/01 04:50:44;;;;;;;2.60;2.40;;;;;;;;;;5043815;28;20509;-63
2022/09/01 04:53:11;;;;;;;9.02;2.40;;;;;;;;;;5035383;28;20099;-62
2022/09/01 04:55:43;;;;;;;4.82;2.20;;;;;;;;;;5033643;28;20056;-62
2022/09/01 04:58:12;;;;;;;4.22;2.42;;;;;;;;;;5029436;28;20154;-62
2022/09/01 05:00:39;;;;;;;3.47;2.47;;;;;;;;;;5026436;28;20037;-62
2022/09/01 05:03:06;;;;;;;4.38;2.50;;;;;;;;;;5037622;28;20394;-62
2022/09/01 05:05:38;;;;;;;4.32;2.58;;;;;;;;;;5032712;28;20045;-62
2022/09/01 05:08:05;;;;;;;3.53;2.28;;;;;;;;;;5025756;28;20119;-62
2022/09/01 05:10:33;;;;;;;3.85;2.58;;;;;;;;;;5032447;28;20376;-62
2022/09/01 05:13:00;;;;;;;3.20;2.40;;;;;;;;;;5027966;28;20045;-62
2022/09/01 05:15:26;;;;;;;4.47;2.63;;;;;;;;;;5028455;28;20042;-62
2022/09/01 05:17:53;;;;;;;2.83;2.33;;;;;;;;;;5026978;28;20044;-62
2022/09/01 05:20:20;;;;;;;6.90;2.90;;;;;;;;;;5027472;28;20041;-62
2022/09/01 05:22:46;;;;;;;5.45;2.70;;;;;;;;;;5027087;28;20046;-62
2022/09/01 05:25:12;;;;;;;4.78;2.90;;;;;;;;;;5026394;28;20100;-62
2022/09/01 05:27:39;;;;;;;4.38;2.90;;;;;;;;;;5024991;28;20160;-62
2022/09/01 05:30:07;;;;;;;4.50;2.67;;;;;;;;;;5029942;28;20044;-62
2022/09/01 05:32:38;;;;;;;5.63;3.08;;;;;;;;;;5022979;28;20521;-62
2022/09/01 05:35:07;;;;;;;4.75;3.38;;;;;;;;;;5016838;28;20052;-62
2022/09/01 05:37:34;;;;;;;3.95;3.00;;;;;;;;;;5026998;28;20396;-62
2022/09/01 05:40:01;;;;;;;5.10;3.20;;;;;;;;;;5026652;28;20044;-62
2022/09/01 05:42:27;;;;;;;4.28;3.05;;;;;;;;;;5037581;28;20534;-62
2022/09/01 05:44:53;;;;;;;6.18;2.88;;;;;;;;;;5034536;28;20475;-62
2022/09/01 05:47:20;;;;;;;4.65;3.05;;;;;;;;;;5035406;28;20395;-62
2022/09/01 05:49:46;;;;;;;4.40;2.90;;;;;;;;;;5024020;28;20038;-62
2022/09/01 05:52:12;;;;;;;4.82;2.75;;;;;;;;;;5025407;28;20037;-62
2022/09/01 05:54:40;;;;;;;6.82;3.00;;;;;;;;;;5020285;28;20411;-62
2022/09/01 05:57:06;;;;;;;5.93;2.75;;;;;;;;;;5025349;28;20041;-62
2022/09/01 05:59:32;;;;;;;4.78;2.83;;;;;;;;;;5038120;28;20032;-62
2022/09/01 06:01:59;;;;;;;6.15;3.10;;;;;;;;;;5029072;28;20092;-61
2022/09/01 06:04:26;;;;;;;3.92;3.00;;;;;;;;;;5026398;28;20041;-62
2022/09/01 06:06:54;;;;;;;3.67;2.83;;;;;;;;;;5028800;28;20057;-62
2022/09/01 06:09:22;;;;;;;4.70;2.65;;;;;;;;;;5037296;28;20044;-61
2022/09/01 06:11:48;;;;;;;4.60;2.85;;;;;;;;;;5036521;28;20049;-62
2022/09/01 06:14:14;;;;;;;5.03;3.10;;;;;;;;;;5020126;28;20045;-62
2022/09/01 06:16:41;;;;;;;5.65;2.67;;;;;;;;;;5030284;28;20034;-62
2022/09/01 06:19:07;;;;;;;5.03;3.00;;;;;;;;;;5030290;28;20037;-62
2022/09/01 06:21:33;;;;;;;5.93;3.00;;;;;;;;;;5034870;28;20433;-62
2022/09/01 06:24:00;;;;;;;3.65;2.90;;;;;;;;;;5030180;28;20076;-62
2022/09/01 06:26:31;;;;;;;3.97;2.60;;;;;;;;;;5045164;28;20091;-62
2022/09/01 06:28:58;;;;;;;5.47;3.33;;;;;;;;;;5028249;28;20042;-62
2022/09/01 06:31:26;;;;;;;4.30;2.80;;;;;;;;;;5024755;28;20042;-62
2022/09/01 06:33:53;;;;;;;7.53;3.05;;;;;;;;;;5028739;28;20048;-62
2022/09/01 06:36:20;;;;;;;3.97;2.85;;;;;;;;;;5050899;28;20040;-62
2022/09/01 06:38:47;;;;;;;4.63;2.80;;;;;;;;;;5037549;28;20487;-62
2022/09/01 06:41:13;;;;;;;4.72;2.95;;;;;;;;;;5049856;28;20082;-62
2022/09/01 06:43:40;;;;;;;3.88;2.88;;;;;;;;;;5048787;28;20038;-62
2022/09/01 06:46:08;;;;;;;5.93;2.90;;;;;;;;;;5038741;28;20045;-62
2022/09/01 06:48:35;;;;;;;3.28;2.60;;;;;;;;;;5034082;28;20092;-62
2022/09/01 06:51:02;;;;;;;4.35;2.80;;;;;;;;;;5041569;28;20171;-61
2022/09/01 06:53:29;;;;;;;2.85;2.42;;;;;;;;;;5049359;28;20048;-62
2022/09/01 06:55:56;;;;;;;3.65;2.70;;;;;;;;;;5038771;28;20116;-61
2022/09/01 06:58:22;;;;;;;5.20;2.63;;;;;;;;;;5053151;28;20112;-62
2022/09/01 07:00:48;;;;;;;4.63;2.28;;;;;;;;;;5040816;28;20460;-62
2022/09/01 07:03:15;;;;;;;3.92;2.60;;;;;;;;;;5036768;28;20029;-62
2022/09/01 07:05:42;;;;;;;4.35;2.60;;;;;;;;;;5038703;28;20044;-62
2022/09/01 07:08:12;;;;;;;2.65;2.38;;;;;;;;;;5049146;28;20049;-61
2022/09/01 07:10:45;;;;;;;4.25;2.47;;;;;;;;;;5033919;28;20044;-62
2022/09/01 07:13:18;;;;;;;4.32;2.72;;;;;;;;;;5039593;28;20041;-62
2022/09/01 07:15:48;;;;;;;3.28;2.78;;;;;;;;;;5041007;28;20095;-62
2022/09/01 07:18:16;;;;;;;3.03;2.30;;;;;;;;;;5040216;28;20121;-62
2022/09/01 07:20:43;;;;;;;3.55;2.33;;;;;;;;;;5043437;28;20090;-62
2022/09/01 07:23:10;;;;;;;4.20;2.28;;;;;;;;;;5034834;28;20080;-62
2022/09/01 07:25:40;;;;;;;5.47;3.05;;;;;;;;;;5042045;28;20099;-63
2022/09/01 07:28:06;;;;;;;3.85;2.33;;;;;;;;;;5048164;28;20568;-62
2022/09/01 07:30:34;;;;;;;5.45;2.95;;;;;;;;;;5053174;28;20041;-63
2022/09/01 07:33:00;;;;;;;4.43;2.30;;;;;;;;;;5035608;28;20052;-62
2022/09/01 07:35:26;;;;;;;3.75;2.63;;;;;;;;;;5041326;28;20041;-63
2022/09/01 07:37:52;;;;;;;4.63;2.22;;;;;;;;;;5044951;28;20048;-63
2022/09/01 07:40:21;;;;;;;5.80;2.42;;;;;;;;;;5028246;28;20498;-63
2022/09/01 07:42:47;;;;;;;3.97;2.60;;;;;;;;;;5029265;28;20053;-63
2022/09/01 07:45:15;;;;;;;4.38;2.53;;;;;;;;;;5044358;28;20086;-63
2022/09/01 07:47:43;;;;;;;7.45;2.38;;;;;;;;;;5035566;28;20516;-63
2022/09/01 07:50:11;;;;;;;6.85;2.20;;;;;;;;;;5038310;28;20048;-63
2022/09/01 07:52:41;;;;;;;4.20;2.15;;;;;;;;;;5028430;28;20053;-62
2022/09/01 07:55:12;;;;;;;3.50;2.45;;;;;;;;;;5028778;28;20053;-63
2022/09/01 07:57:41;;;;;;;3.85;2.30;;;;;;;;;;5037679;28;20093;-63
2022/09/01 08:00:07;;;;;;;3.00;2.30;;;;;;;;;;5052230;28;20120;-62
2022/09/01 08:02:33;;;;;;;2.60;2.40;;;;;;;;;;5044008;28;20121;-63
2022/09/01 08:05:00;;;;;;;13.85;2.90;;;;;;;;;;5043577;28;20053;-62
2022/09/01 08:07:26;;;;;;;7.35;2.40;;;;;;;;;;5046549;28;20042;-62
2022/09/01 08:09:52;;;;;;;7.30;2.08;;;;;;;;;;5032648;28;20049;-63
2022/09/01 08:12:18;;;;;;;4.60;2.05;;;;;;;;;;5038547;28;20049;-63
2022/09/01 08:14:45;;;;;;;1.65;1.55;;;;;;;;;;5022018;28;20073;-62
2022/09/01 08:17:11;;;;;;;3.42;1.63;;;;;;;;;;5031955;28;20541;-63
2022/09/01 08:19:37;;;;;;;4.47;1.80;;;;;;;;;;5033849;28;20037;-63
2022/09/01 08:22:03;;;;;;;4.60;1.90;;;;;;;;;;5020554;28;20038;-63
2022/09/01 08:24:30;;;;;;;2.63;1.45;;;;;;;;;;5024780;28;20379;-63
2022/09/01 08:26:56;;;;;;;3.35;1.55;;;;;;;;;;5029354;28;20410;-63
2022/09/01 08:29:22;;;;;;;2.33;1.38;;;;;;;;;;5035046;28;20041;-63
2022/09/01 08:31:48;;;;;;;2.25;1.40;;;;;;;;;;5027676;28;20085;-63
2022/09/01 08:34:15;;;;;;;1.85;1.13;;;;;;;;;;5031939;28;20049;-63
2022/09/01 08:36:42;;;;;;;3.70;1.50;;;;;;;;;;5051521;28;20045;-63
2022/09/01 08:39:08;;;;;;;2.58;1.60;;;;;;;;;;5050895;28;20037;-63
2022/09/01 08:41:37;;;;;;;1.65;1.38;;;;;;;;;;5044016;28;20124;-63
2022/09/01 08:44:16;;;;;;;1.50;1.15;;;;;;;;;;5041201;28;20094;-63
2022/09/01 08:46:43;;;;;;;1.65;1.25;;;;;;;;;;5038968;28;20128;-63
2022/09/01 08:49:14;;;;;;;5.00;1.63;;;;;;;;;;5048255;28;20041;-63
2022/09/01 08:51:52;;;;;;;3.00;1.15;;;;;;;;;;5051471;28;20403;-63
2022/09/01 08:54:36;;;;;;;3.97;1.10;;;;;;;;;;5048535;28;20412;-63
2022/09/01 08:57:13;;;;;;;2.17;1.02;;;;;;;;;;5028222;28;20037;-63
2022/09/01 08:59:39;;;;;;;1.55;0.95;;;;;;;;;;5034193;28;20039;-63
2022/09/01 09:02:20;;;;;;;2.83;0.95;;;;;;;;;;5043519;28;20068;-63
2022/09/01 09:05:05;;;;;;;2.20;1.20;;;;;;;;;;5051337;28;20045;-63
2022/09/01 09:07:39;;;;;;;5.38;1.25;;;;;;;;;;5038488;28;20051;-63
2022/09/01 09:10:31;;;;;;;1.90;0.82;;;;;;;;;;5047318;28;20045;-62
2022/09/01 09:13:17;;;;;;;2.35;0.90;;;;;;;;;;5045470;28;20529;-63
2022/09/01 09:16:07;;;;;;;2.40;0.85;;;;;;;;;;5038444;28;20072;-63
2022/09/01 09:18:40;;;;;;;1.88;0.90;;;;;;;;;;5008712;28;20062;-63
2022/09/01 09:21:11;;;;;;;1.02;0.82;;;;;;;;;;5037798;28;20068;-63
2022/09/01 09:23:40;;;;;;;4.28;0.90;;;;;;;;;;5012031;28;20439;-62
2022/09/01 09:26:07;;;;;;;2.00;0.90;;;;;;;;;;5011345;28;20049;-63
2022/09/01 09:28:33;;;;;;;1.40;0.80;;;;;;;;;;5026209;28;20063;-62
2022/09/01 09:31:18;;;;;;;2.20;0.73;;;;;;;;;;5042452;28;20052;-63
2022/09/01 09:33:44;;;;;;;1.90;0.90;;;;;;;;;;5044370;28;20096;-63
2022/09/01 09:36:21;;;;;;;2.13;0.80;;;;;;;;;;5043010;28;20037;-63
2022/09/01 09:38:47;;;;;;;1.63;0.80;;;;;;;;;;5049519;28;20045;-63
2022/09/01 09:41:20;;;;;;;2.13;0.80;;;;;;;;;;5049628;28;20123;-63
2022/09/01 09:43:48;;;;;;;2.50;0.80;;;;;;;;;;5036066;28;20509;-63
2022/09/01 09:46:33;;;;;;;1.52;0.73;;;;;;;;;;5046086;28;20044;-63
2022/09/01 09:49:19;;;;;;;1.13;0.80;;;;;;;;;;5043134;28;20045;-63
2022/09/01 09:51:47;;;;;;;3.03;0.60;;;;;;;;;;5054653;28;20116;-63
2022/09/01 09:54:20;;;;;;;0.90;0.60;;;;;;;;;;5044193;28;20045;-63
2022/09/01 09:56:46;;;;;;;2.00;0.65;;;;;;;;;;5038471;28;20040;-63
2022/09/01 09:59:22;;;;;;;1.55;0.68;;;;;;;;;;5044781;28;20064;-63
2022/09/01 10:01:50;;;;;;;2.92;0.60;;;;;;;;;;5039184;28;20564;-63
2022/09/01 10:04:31;;;;;;;4.88;0.73;;;;;;;;;;5036851;28;20405;-63
2022/09/01 10:06:57;;;;;;;4.47;0.68;;;;;;;;;;5034659;28;20045;-63
2022/09/01 10:09:24;;;;;;;2.20;0.60;;;;;;;;;;5034378;28;20041;-63
2022/09/01 10:11:52;;;;;;;5.47;1.02;;;;;;;;;;5033504;28;20057;-63
2022/09/01 10:14:20;;;;;;;3.53;0.90;;;;;;;;;;5042085;28;20057;-63
2022/09/01 10:16:48;;;;;;;1.48;0.52;;;;;;;;;;5035783;28;20541;-63
2022/09/01 10:19:14;;;;;;;5.03;0.90;;;;;;;;;;5024720;28;20107;-63
2022/09/01 10:21:41;;;;;;;5.85;0.68;;;;;;;;;;5026044;28;20084;-64
2022/09/01 10:24:28;;;;;;;1.27;0.50;;;;;;;;;;5023243;28;20056;-64
2022/09/01 10:26:55;;;;;;;3.53;0.82;;;;;;;;;;5060468;22;20060;-65
2022/09/01 10:29:25;;;;;;;2.05;0.60;;;;;;;;;;5048663;28;20047;-65
2022/09/01 10:31:53;;;;;;;1.88;0.60;;;;;;;;;;5057209;28;20410;-65
2022/09/01 10:34:20;;;;;;;1.95;0.60;;;;;;;;;;5064990;28;20040;-65
2022/09/01 10:36:47;;;;;;;1.40;0.57;;;;;;;;;;5048120;28;20029;-65
2022/09/01 10:39:14;;;;;;;2.22;0.60;;;;;;;;;;5053219;28;20033;-65
2022/09/01 10:41:52;;;;;;;2.67;0.50;;;;;;;;;;5057375;28;20090;-65
2022/09/01 10:44:23;;;;;;;1.08;0.50;;;;;;;;;;5053741;28;20406;-65
2022/09/01 10:46:50;;;;;;;5.32;0.85;;;;;;;;;;5045193;28;20112;-64
2022/09/01 10:49:27;;;;;;;3.78;0.68;;;;;;;;;;5052702;28;20048;-65
2022/09/01 10:51:55;;;;;;;2.25;0.60;;;;;;;;;;5050623;28;20094;-64
2022/09/01 10:54:39;;;;;;;1.48;0.70;;;;;;;;;;5050329;28;20075;-64
2022/09/01 10:57:23;;;;;;;1.02;0.70;;;;;;;;;;5050843;28;20032;-64
2022/09/01 10:59:50;;;;;;;3.03;0.60;;;;;;;;;;5048680;28;20395;-64
2022/09/01 11:02:16;;;;;;;1.35;0.40;;;;;;;;;;5046567;28;20079;-64
2022/09/01 11:04:45;;;;;;;1.48;0.63;;;;;;;;;;5050477;28;20056;-64
2022/09/01 11:07:23;;;;;;;1.30;0.63;;;;;;;;;;5049392;28;20120;-64
2022/09/01 11:10:07;;;;;;;1.98;0.70;;;;;;;;;;5051534;28;20425;-64
2022/09/01 11:12:52;;;;;;;1.73;0.70;;;;;;;;;;5037002;28;20410;-64
2022/09/01 11:15:18;;;;;;;2.03;0.68;;;;;;;;;;5050036;28;20041;-64
2022/09/01 11:17:50;;;;;;;0.80;0.60;;;;;;;;;;5048251;28;20044;-64
2022/09/01 11:20:22;;;;;;;0.77;0.45;;;;;;;;;;5050103;28;20033;-64
2022/09/01 11:22:59;;;;;;;2.25;0.50;;;;;;;;;;5041348;28;20097;-64
2022/09/01 11:25:32;;;;;;;0.98;0.60;;;;;;;;;;5049957;28;20040;-63
2022/09/01 11:27:59;;;;;;;2.25;0.60;;;;;;;;;;5047900;28;20049;-64
2022/09/01 11:30:36;;;;;;;3.47;0.50;;;;;;;;;;5052833;28;20041;-64
2022/09/01 11:33:25;;;;;;;2.45;0.50;;;;;;;;;;5049586;28;20039;-64
2022/09/01 11:36:00;;;;;;;1.70;0.60;;;;;;;;;;5048722;28;20456;-64
2022/09/01 11:38:28;;;;;;;2.35;0.50;;;;;;;;;;5046671;28;20040;-64
2022/09/01 11:40:55;;;;;;;3.65;0.77;;;;;;;;;;5052445;28;20131;-64
2022/09/01 11:43:22;;;;;;;1.48;0.65;;;;;;;;;;5049181;28;20562;-64
2022/09/01 11:46:11;;;;;;;2.15;0.60;;;;;;;;;;5052808;28;20068;-65
2022/09/01 11:48:38;;;;;;;1.33;0.40;;;;;;;;;;5032231;28;20049;-64
2022/09/01 11:51:04;;;;;;;1.98;0.70;;;;;;;;;;5050068;28;20047;-65
2022/09/01 11:53:31;;;;;;;2.42;0.60;;;;;;;;;;5054665;28;20502;-65
2022/09/01 11:56:11;;;;;;;1.75;0.50;;;;;;;;;;5056172;28;20084;-65
2022/09/01 11:58:38;;;;;;;1.07;0.50;;;;;;;;;;5047593;28;20029;-64
2022/09/01 12:01:16;;;;;;;0.77;0.55;;;;;;;;;;5051481;28;20421;-65
2022/09/01 12:03:42;;;;;;;1.98;0.82;;;;;;;;;;5047705;28;20089;-65
2022/09/01 12:06:10;;;;;;;1.75;0.50;;;;;;;;;;5049613;28;20048;-64
2022/09/01 12:08:38;;;;;;;2.33;0.70;;;;;;;;;;5051691;28;20398;-65
2022/09/01 12:11:06;;;;;;;1.13;0.43;;;;;;;;;;5050034;28;20041;-62
2022/09/01 12:13:32;;;;;;;1.10;0.45;;;;;;;;;;5041200;28;20060;-62
2022/09/01 12:16:02;;;;;;;1.60;0.70;;;;;;;;;;5042414;28;20384;-62
2022/09/01 12:18:30;;;;;;;1.10;0.50;;;;;;;;;;5051908;28;20402;-62
2022/09/01 12:20:57;;;;;;;2.70;0.80;;;;;;;;;;5021737;28;20041;-62
2022/09/01 12:23:33;;;;;;;2.60;0.65;;;;;;;;;;5049275;28;20115;-62
2022/09/01 12:26:08;;;;;;;2.00;0.80;;;;;;;;;;5055738;28;20052;-62
2022/09/01 12:28:40;;;;;;;3.35;0.52;;;;;;;;;;5047611;28;20383;-62
2022/09/01 12:31:11;;;;;;;6.15;0.90;;;;;;;;;;5049624;28;20051;-62
2022/09/01 12:33:38;;;;;;;1.88;0.70;;;;;;;;;;5039850;28;20040;-63
2022/09/01 12:36:23;;;;;;;3.35;0.60;;;;;;;;;;5048659;28;20052;-62
2022/09/01 12:38:49;;;;;;;0.90;0.60;;;;;;;;;;5049354;28;20487;-62
2022/09/01 12:41:26;;;;;;;3.00;0.70;;;;;;;;;;5060023;28;20426;-62
2022/09/01 12:43:52;;;;;;;7.88;1.75;;;;;;;;;;5046734;28;20033;-61
2022/09/01 12:46:37;;;;;;;2.67;0.60;;;;;;;;;;5050039;28;20033;-61
2022/09/01 12:49:17;;;;;;;1.65;0.57;;;;;;;;;;5050087;28;20576;-62
2022/09/01 12:51:46;;;;;;;2.20;0.90;;;;;;;;;;5044962;28;20560;-62
2022/09/01 12:54:13;;;;;;;2.55;0.57;;;;;;;;;;5045961;28;20711;-61
2022/09/01 12:56:38;;;;;;;1.48;0.63;;;;;;;;;;5050322;28;20033;-61
2022/09/01 12:59:04;;;;;;;1.60;0.63;;;;;;;;;;5058396;28;20064;-63
2022/09/01 13:01:32;;;;;;;4.53;0.68;;;;;;;;;;5051298;28;20158;-63
2022/09/01 13:04:10;;;;;;;2.05;0.70;;;;;;;;;;5048403;28;20033;-63
2022/09/01 13:06:36;;;;;;;1.05;0.60;;;;;;;;;;5042806;28;20045;-63
2022/09/01 13:09:03;;;;;;;2.08;0.70;;;;;;;;;;5054656;28;20044;-63
2022/09/01 13:11:29;;;;;;;9.60;0.90;;;;;;;;;;5048888;28;20060;-63
2022/09/01 13:13:55;;;;;;;2.75;0.70;;;;;;;;;;5048989;28;20037;-63
2022/09/01 13:16:22;;;;;;;1.17;0.50;;;;;;;;;;5052316;28;20041;-63
2022/09/01 13:18:48;;;;;;;1.15;0.65;;;;;;;;;;5048255;28;20041;-63
2022/09/01 13:21:14;;;;;;;1.40;0.93;;;;;;;;;;5047007;28;20056;-63
2022/09/01 13:23:40;;;;;;;3.70;0.60;;;;;;;;;;5044421;28;20131;-63
2022/09/01 13:26:07;;;;;;;0.80;0.60;;;;;;;;;;5043329;28;20048;-63
2022/09/01 13:28:33;;;;;;;0.45;0.40;;;;;;;;;;5048233;28;20037;-63
2022/09/01 13:31:01;;;;;;;1.63;0.50;;;;;;;;;;5046925;28;20041;-63
2022/09/01 13:33:28;;;;;;;1.58;0.47;;;;;;;;;;5046623;28;20512;-63
2022/09/01 13:35:54;;;;;;;2.45;0.50;;;;;;;;;;5053599;28;20048;-63
2022/09/01 13:38:21;;;;;;;3.22;0.80;;;;;;;;;;5054684;28;20522;-63
2022/09/01 13:40:47;;;;;;;1.75;0.73;;;;;;;;;;5053158;28;20039;-63
2022/09/01 13:43:25;;;;;;;7.57;1.00;;;;;;;;;;5049642;28;20041;-63
2022/09/01 13:45:52;;;;;;;1.05;0.60;;;;;;;;;;5047050;28;20044;-63
2022/09/01 13:48:18;;;;;;;3.22;0.50;;;;;;;;;;5052433;28;20047;-64
2022/09/01 13:50:48;;;;;;;2.65;0.57;;;;;;;;;;5054346;28;20445;-63
2022/09/01 13:53:14;;;;;;;2.73;0.70;;;;;;;;;;5039704;28;20045;-63
2022/09/01 13:55:40;;;;;;;0.80;0.50;;;;;;;;;;5043340;28;20052;-62
2022/09/01 13:58:07;;;;;;;1.23;0.77;;;;;;;;;;5050690;28;20044;-62
2022/09/01 14:00:35;;;;;;;1.23;0.60;;;;;;;;;;5051407;28;20402;-62
2022/09/01 14:03:03;;;;;;;1.63;0.65;;;;;;;;;;5049906;28;20106;-62
2022/09/01 14:05:31;;;;;;;0.80;0.50;;;;;;;;;;5051902;28;20120;-62
2022/09/01 14:07:57;;;;;;;3.35;0.60;;;;;;;;;;5049214;28;20080;-62
2022/09/01 14:10:24;;;;;;;1.20;0.60;;;;;;;;;;5047556;28;20055;-62
2022/09/01 14:12:50;;;;;;;0.90;0.50;;;;;;;;;;5045587;28;20049;-62
2022/09/01 14:15:17;;;;;;;1.02;0.55;;;;;;;;;;5051421;28;20118;-61
2022/09/01 14:17:44;;;;;;;1.25;0.70;;;;;;;;;;5048662;28;20041;-61
2022/09/01 14:20:11;;;;;;;2.47;0.50;;;;;;;;;;5058073;28;20036;-61
2022/09/01 14:22:39;;;;;;;2.65;0.60;;;;;;;;;;5044716;28;20057;-61
2022/09/01 14:25:05;;;;;;;0.60;0.47;;;;;;;;;;5043709;28;20045;-61
2022/09/01 14:27:32;;;;;;;2.25;0.50;;;;;;;;;;5052047;28;20037;-61
2022/09/01 14:29:58;;;;;;;3.65;0.50;;;;;;;;;;5052947;28;20124;-61
2022/09/01 14:32:25;;;;;;;1.02;0.60;;;;;;;;;;5050809;28;20041;-61
2022/09/01 14:34:54;;;;;;;1.48;0.50;;;;;;;;;;5051249;28;20044;-62
2022/09/01 14:37:21;;;;;;;1.67;0.60;;;;;;;;;;5060888;28;20086;-61
2022/09/01 14:39:50;;;;;;;0.80;0.50;;;;;;;;;;5057545;28;20043;-61
2022/09/01 14:42:18;;;;;;;1.70;0.50;;;;;;;;;;5052574;28;20044;-62
2022/09/01 14:44:44;;;;;;;1.17;0.73;;;;;;;;;;5048490;28;20127;-62
2022/09/01 14:47:10;;;;;;;3.63;0.60;;;;;;;;;;5043710;28;20037;-61
2022/09/01 14:49:37;;;;;;;1.80;0.60;;;;;;;;;;5046399;28;20037;-62
2022/09/01 14:52:05;;;;;;;1.75;0.60;;;;;;;;;;5051351;28;20056;-61
2022/09/01 14:54:33;;;;;;;2.58;0.60;;;;;;;;;;5051739;28;20521;-62
2022/09/01 14:56:59;;;;;;;1.33;0.57;;;;;;;;;;5050190;28;20048;-61